Time;durP1;ratioP1;P1;durP2;ratioP2;P2;SDS_P1;SDS_P2;PMS_P1;PMS_P2;Temp;Humidity;BMP_temperature;BMP_pressure;BME280_temperature;BME280_humidity;BME280_pressure;Samples;Min_cycle;Max_cycle;Signal;HPM_P1;HPM_P2
2023/07/27 00:01:06;;;;;;;0.93;0.80;;;23.70;50.90;;;;;;5078873;28;20021;-64
2023/07/27 00:03:31;;;;;;;0.90;0.70;;;23.60;50.90;;;;;;5081049;28;20043;-65
2023/07/27 00:05:57;;;;;;;1.00;0.80;;;23.60;50.90;;;;;;5077164;28;20025;-64
2023/07/27 00:08:22;;;;;;;1.88;0.82;;;23.60;50.90;;;;;;5080711;28;20056;-65
2023/07/27 00:10:48;;;;;;;0.95;0.80;;;23.60;50.90;;;;;;5077313;28;20044;-65
2023/07/27 00:13:14;;;;;;;1.10;0.80;;;23.60;50.90;;;;;;5077181;28;20050;-65
2023/07/27 00:15:39;;;;;;;1.23;0.80;;;23.60;50.90;;;;;;5062721;28;20108;-64
2023/07/27 00:18:05;;;;;;;0.93;0.77;;;23.60;50.90;;;;;;5081699;28;20415;-65
2023/07/27 00:20:30;;;;;;;0.95;0.70;;;23.60;50.90;;;;;;5081609;28;20101;-64
2023/07/27 00:22:56;;;;;;;0.95;0.75;;;23.60;50.80;;;;;;5080336;28;20028;-66
2023/07/27 00:25:22;;;;;;;1.10;0.80;;;23.60;50.90;;;;;;5081041;28;20056;-65
2023/07/27 00:27:47;;;;;;;1.25;0.90;;;23.60;50.80;;;;;;5063480;28;20461;-65
2023/07/27 00:30:13;;;;;;;1.30;0.90;;;23.60;50.90;;;;;;5079785;28;20047;-64
2023/07/27 00:32:38;;;;;;;0.70;0.60;;;23.60;50.90;;;;;;5060372;28;20086;-64
2023/07/27 00:35:05;;;;;;;0.82;0.70;;;23.60;50.90;;;;;;5077820;28;20034;-65
2023/07/27 00:37:31;;;;;;;1.23;0.77;;;23.60;50.80;;;;;;5079926;28;20028;-65
2023/07/27 00:39:56;;;;;;;1.30;0.80;;;23.60;50.80;;;;;;5079684;28;20021;-64
2023/07/27 00:42:22;;;;;;;1.08;0.60;;;23.60;50.90;;;;;;5077226;28;20107;-64
2023/07/27 00:44:47;;;;;;;1.70;0.88;;;23.60;50.90;;;;;;5080931;28;20383;-64
2023/07/27 00:47:13;;;;;;;1.40;0.90;;;23.60;50.90;;;;;;5081460;28;20461;-65
2023/07/27 00:49:39;;;;;;;1.30;0.82;;;23.60;50.90;;;;;;5066064;28;20035;-65
2023/07/27 00:52:07;;;;;;;1.30;0.70;;;23.60;50.90;;;;;;5079033;28;20032;-64
2023/07/27 00:54:34;;;;;;;1.02;0.90;;;23.60;50.80;;;;;;5080612;28;20020;-64
2023/07/27 00:57:00;;;;;;;0.82;0.80;;;23.60;50.90;;;;;;5077985;28;20052;-64
2023/07/27 00:59:27;;;;;;;0.75;0.70;;;23.60;50.90;;;;;;5079131;28;20049;-64
2023/07/27 01:01:53;;;;;;;1.02;0.80;;;23.60;51.40;;;;;;5079126;28;20403;-65
2023/07/27 01:04:19;;;;;;;1.00;0.75;;;23.60;50.90;;;;;;5080288;28;20048;-64
2023/07/27 01:06:45;;;;;;;0.88;0.75;;;23.60;50.90;;;;;;5082195;28;20099;-64
2023/07/27 01:09:10;;;;;;;1.13;0.80;;;23.60;50.90;;;;;;5080845;28;20107;-64
2023/07/27 01:12:13;;;;;;;0.85;0.80;;;23.60;50.90;;;;;;5062853;28;20040;-65
2023/07/27 01:14:57;;;;;;;1.23;0.82;;;23.60;50.90;;;;;;5079090;28;20403;-65
2023/07/27 01:17:32;;;;;;;1.00;0.90;;;23.60;50.80;;;;;;5079853;28;20024;-65
2023/07/27 01:20:24;;;;;;;1.33;0.80;;;23.60;50.80;;;;;;5080109;28;20369;-64
2023/07/27 01:23:25;;;;;;;1.10;0.80;;;23.60;50.80;;;;;;5076349;28;20119;-65
2023/07/27 01:25:51;;;;;;;1.50;0.75;;;23.60;50.80;;;;;;5079213;28;20218;-65
2023/07/27 01:28:19;;;;;;;1.00;0.70;;;23.60;50.80;;;;;;5078007;28;20195;-63
2023/07/27 01:30:57;;;;;;;1.83;0.90;;;23.60;50.80;;;;;;5079270;28;20506;-65
2023/07/27 01:33:30;;;;;;;0.88;0.70;;;23.50;50.80;;;;;;5062155;28;20028;-65
2023/07/27 01:36:08;;;;;;;0.63;0.60;;;23.60;50.80;;;;;;5078923;28;20115;-65
2023/07/27 01:38:39;;;;;;;0.77;0.68;;;23.60;50.80;;;;;;5061590;28;20055;-65
2023/07/27 01:41:08;;;;;;;1.13;0.80;;;23.50;50.80;;;;;;5079772;28;20104;-66
2023/07/27 01:43:35;;;;;;;0.88;0.70;;;23.50;50.80;;;;;;5063555;28;20043;-64
2023/07/27 01:46:02;;;;;;;0.90;0.80;;;23.50;50.80;;;;;;5079587;28;20093;-64
2023/07/27 01:48:29;;;;;;;1.88;0.70;;;23.50;51.30;;;;;;5077410;28;20111;-65
2023/07/27 01:50:56;;;;;;;0.98;0.80;;;23.50;50.80;;;;;;5078000;28;20345;-64
2023/07/27 01:53:24;;;;;;;1.05;0.80;;;23.50;50.80;;;;;;5077032;28;20360;-65
2023/07/27 01:55:51;;;;;;;0.73;0.70;;;23.50;50.80;;;;;;5079684;28;20441;-64
2023/07/27 01:58:17;;;;;;;0.60;0.60;;;23.50;50.80;;;;;;5076963;28;20455;-65
2023/07/27 02:00:43;;;;;;;0.80;0.70;;;23.50;50.80;;;;;;5078769;28;20413;-62
2023/07/27 02:03:12;;;;;;;0.80;0.65;;;23.50;50.80;;;;;;5078871;28;20028;-64
2023/07/27 02:05:38;;;;;;;0.93;0.70;;;23.50;50.80;;;;;;5076544;28;20032;-63
2023/07/27 02:08:03;;;;;;;1.10;0.80;;;23.50;50.70;;;;;;5079487;28;20392;-65
2023/07/27 02:10:31;;;;;;;0.80;0.80;;;23.50;50.80;;;;;;5060489;28;20036;-63
2023/07/27 02:13:19;;;;;;;1.20;0.77;;;23.50;50.70;;;;;;5058673;28;20445;-64
2023/07/27 02:15:50;;;;;;;0.73;0.70;;;23.50;50.70;;;;;;5077577;28;20476;-65
2023/07/27 02:18:21;;;;;;;0.80;0.73;;;23.50;50.70;;;;;;5075550;28;20063;-64
2023/07/27 02:20:48;;;;;;;1.13;0.80;;;23.50;50.70;;;;;;5058346;28;20104;-64
2023/07/27 02:23:14;;;;;;;0.80;0.73;;;23.50;50.70;;;;;;5078274;28;20508;-64
2023/07/27 02:25:41;;;;;;;0.93;0.70;;;23.50;50.70;;;;;;5081101;28;20028;-64
2023/07/27 02:28:10;;;;;;;1.10;0.75;;;23.50;50.80;;;;;;5073732;28;20464;-65
2023/07/27 02:30:36;;;;;;;0.95;0.73;;;23.40;50.70;;;;;;5109611;27;20028;-64
2023/07/27 02:33:02;;;;;;;0.65;0.65;;;23.50;50.80;;;;;;5078628;28;20162;-64
2023/07/27 02:35:28;;;;;;;0.80;0.80;;;23.50;50.80;;;;;;5077549;28;20026;-65
2023/07/27 02:37:53;;;;;;;0.82;0.77;;;23.50;50.70;;;;;;5076733;28;20031;-64
2023/07/27 02:40:19;;;;;;;1.13;0.77;;;23.40;50.70;;;;;;5058885;28;20779;-64
2023/07/27 02:42:44;;;;;;;0.88;0.80;;;23.40;50.70;;;;;;5058403;28;20125;-64
2023/07/27 02:45:11;;;;;;;0.82;0.70;;;23.40;50.70;;;;;;5074148;28;20055;-64
2023/07/27 02:47:36;;;;;;;1.05;0.70;;;23.40;50.70;;;;;;5091036;28;20799;-65
2023/07/27 02:50:02;;;;;;;0.80;0.70;;;23.40;50.70;;;;;;5061050;28;20206;-65
2023/07/27 02:52:28;;;;;;;0.85;0.70;;;23.40;50.70;;;;;;5076926;28;20089;-64
2023/07/27 02:54:53;;;;;;;0.90;0.70;;;23.40;50.70;;;;;;5077226;28;20031;-64
2023/07/27 02:57:19;;;;;;;0.82;0.70;;;23.40;50.70;;;;;;5078042;28;20025;-64
2023/07/27 02:59:45;;;;;;;0.95;0.70;;;23.40;50.70;;;;;;5077273;28;20020;-64
2023/07/27 03:02:10;;;;;;;0.88;0.70;;;23.40;50.60;;;;;;5077438;28;20039;-64
2023/07/27 03:04:36;;;;;;;1.23;0.70;;;23.40;50.70;;;;;;5077268;28;20028;-64
2023/07/27 03:07:01;;;;;;;0.50;0.50;;;23.40;50.60;;;;;;5075727;28;20024;-64
2023/07/27 03:09:27;;;;;;;0.85;0.70;;;23.40;50.70;;;;;;5078240;28;20028;-64
2023/07/27 03:11:53;;;;;;;1.00;0.75;;;23.40;50.70;;;;;;5077884;28;20028;-64
2023/07/27 03:14:18;;;;;;;0.90;0.70;;;23.40;50.70;;;;;;5075582;28;20063;-64
2023/07/27 03:16:44;;;;;;;0.80;0.70;;;23.40;50.70;;;;;;5077464;28;20027;-64
2023/07/27 03:19:09;;;;;;;0.77;0.70;;;23.40;50.70;;;;;;5076561;28;20027;-64
2023/07/27 03:21:35;;;;;;;0.70;0.70;;;23.40;50.70;;;;;;5076724;28;20490;-65
2023/07/27 03:24:01;;;;;;;0.77;0.70;;;23.40;50.70;;;;;;5075407;28;20069;-64
2023/07/27 03:26:26;;;;;;;0.90;0.70;;;23.40;50.70;;;;;;5078508;28;20028;-64
2023/07/27 03:28:52;;;;;;;0.43;0.43;;;23.40;50.70;;;;;;5076852;28;20048;-64
2023/07/27 03:31:19;;;;;;;0.85;0.70;;;23.40;50.70;;;;;;5076697;28;20028;-64
2023/07/27 03:33:46;;;;;;;0.75;0.65;;;23.40;50.70;;;;;;5058039;28;20373;-65
2023/07/27 03:36:14;;;;;;;1.42;0.80;;;23.40;50.70;;;;;;5058381;28;20044;-64
2023/07/27 03:38:39;;;;;;;0.50;0.50;;;23.40;50.70;;;;;;5061598;28;20494;-64
2023/07/27 03:41:05;;;;;;;1.13;0.80;;;23.40;50.70;;;;;;5060312;28;20033;-64
2023/07/27 03:43:31;;;;;;;0.82;0.70;;;23.40;50.70;;;;;;5075654;28;20036;-64
2023/07/27 03:45:56;;;;;;;0.70;0.60;;;23.40;50.70;;;;;;5077387;28;20028;-64
2023/07/27 03:48:22;;;;;;;0.68;0.60;;;23.40;50.70;;;;;;5077667;28;20046;-64
2023/07/27 03:50:47;;;;;;;0.90;0.63;;;23.30;50.60;;;;;;5076440;28;20404;-64
2023/07/27 03:53:13;;;;;;;0.60;0.60;;;23.40;50.70;;;;;;5078107;28;20477;-65
2023/07/27 03:55:39;;;;;;;0.60;0.60;;;23.40;50.70;;;;;;5075091;28;20021;-64
2023/07/27 03:58:05;;;;;;;0.77;0.68;;;23.40;50.70;;;;;;5074660;28;20048;-64
2023/07/27 04:00:31;;;;;;;0.77;0.70;;;23.40;50.60;;;;;;5076341;28;20073;-64
2023/07/27 04:02:56;;;;;;;1.05;0.70;;;23.40;50.70;;;;;;5077906;28;20056;-64
2023/07/27 04:05:22;;;;;;;0.73;0.60;;;23.40;50.60;;;;;;5077796;28;20024;-64
2023/07/27 04:07:52;;;;;;;1.10;0.70;;;23.30;50.60;;;;;;5076222;28;20105;-63
2023/07/27 04:10:18;;;;;;;0.60;0.60;;;23.30;50.60;;;;;;5067471;28;20115;-65
2023/07/27 04:12:43;;;;;;;0.80;0.70;;;23.30;50.60;;;;;;5075304;28;20150;-65
2023/07/27 04:15:10;;;;;;;0.88;0.70;;;23.30;50.50;;;;;;5075194;28;20111;-64
2023/07/27 04:17:35;;;;;;;0.63;0.60;;;23.30;50.50;;;;;;5074851;28;20404;-64
2023/07/27 04:20:01;;;;;;;0.80;0.70;;;23.30;50.50;;;;;;5080179;28;20055;-65
2023/07/27 04:22:27;;;;;;;0.90;0.80;;;23.30;50.50;;;;;;5069186;28;20070;-64
2023/07/27 04:24:52;;;;;;;1.00;0.80;;;23.30;50.50;;;;;;5081194;28;20033;-64
2023/07/27 04:27:18;;;;;;;1.00;0.80;;;23.30;50.50;;;;;;5081294;28;20057;-64
2023/07/27 04:29:43;;;;;;;1.08;0.80;;;23.30;50.50;;;;;;5078481;28;20036;-64
2023/07/27 04:32:09;;;;;;;0.80;0.68;;;23.30;50.50;;;;;;5064460;28;20537;-65
2023/07/27 04:34:35;;;;;;;0.75;0.70;;;23.30;50.50;;;;;;5079226;28;20112;-65
2023/07/27 04:37:00;;;;;;;1.10;0.70;;;23.30;50.50;;;;;;5080825;28;20032;-64
2023/07/27 04:39:26;;;;;;;1.55;0.90;;;23.30;50.50;;;;;;5077986;28;20020;-64
2023/07/27 04:41:52;;;;;;;1.20;0.70;;;23.30;51.00;;;;;;5096058;28;20448;-64
2023/07/27 04:44:17;;;;;;;1.08;0.80;;;23.30;50.50;;;;;;5077910;28;20039;-64
2023/07/27 04:46:43;;;;;;;0.70;0.70;;;23.30;50.40;;;;;;5078944;28;20114;-64
2023/07/27 04:49:09;;;;;;;0.90;0.77;;;23.30;50.40;;;;;;5077731;28;20037;-64
2023/07/27 04:51:35;;;;;;;1.00;0.77;;;23.30;50.40;;;;;;5062395;28;20025;-64
2023/07/27 04:54:01;;;;;;;1.15;0.77;;;23.30;50.40;;;;;;5080790;28;20226;-64
2023/07/27 04:56:27;;;;;;;0.93;0.80;;;23.20;50.40;;;;;;5094832;28;20024;-64
2023/07/27 04:58:53;;;;;;;1.20;0.90;;;23.20;50.30;;;;;;5063180;28;20077;-64
2023/07/27 05:01:18;;;;;;;1.00;0.70;;;23.20;50.40;;;;;;5079043;28;20016;-65
2023/07/27 05:03:44;;;;;;;1.13;0.80;;;23.30;50.40;;;;;;5079601;28;20433;-64
2023/07/27 05:06:10;;;;;;;1.40;0.88;;;23.30;50.40;;;;;;5077174;28;20120;-64
2023/07/27 05:08:35;;;;;;;1.20;0.88;;;23.20;50.30;;;;;;5069477;28;20058;-64
2023/07/27 05:11:08;;;;;;;1.00;0.70;;;23.20;50.30;;;;;;5060602;28;20040;-64
2023/07/27 05:13:34;;;;;;;0.80;0.70;;;23.20;50.40;;;;;;5061812;28;20514;-64
2023/07/27 05:16:02;;;;;;;0.60;0.60;;;23.20;50.30;;;;;;5077549;28;20440;-64
2023/07/27 05:18:28;;;;;;;1.13;0.73;;;23.20;50.30;;;;;;5079211;28;20523;-64
2023/07/27 05:20:55;;;;;;;1.15;0.90;;;23.20;50.30;;;;;;5078406;28;20429;-64
2023/07/27 05:23:20;;;;;;;1.75;0.80;;;23.20;50.30;;;;;;5076251;28;20615;-64
2023/07/27 05:25:47;;;;;;;0.75;0.70;;;23.20;50.30;;;;;;5094281;28;20032;-64
2023/07/27 05:28:12;;;;;;;0.98;0.70;;;23.20;50.30;;;;;;5061150;28;20222;-64
2023/07/27 05:30:38;;;;;;;0.90;0.80;;;23.20;50.30;;;;;;5077143;28;20102;-64
2023/07/27 05:33:04;;;;;;;0.95;0.70;;;23.20;50.30;;;;;;5077775;28;20020;-64
2023/07/27 05:35:29;;;;;;;0.82;0.80;;;23.20;50.30;;;;;;5076866;28;20510;-64
2023/07/27 05:37:55;;;;;;;1.05;0.80;;;23.20;50.40;;;;;;5078886;28;20066;-64
2023/07/27 05:40:21;;;;;;;1.10;0.85;;;23.20;50.40;;;;;;5079449;28;20028;-64
2023/07/27 05:42:46;;;;;;;0.98;0.80;;;23.20;50.40;;;;;;5080784;28;20387;-65
2023/07/27 05:45:12;;;;;;;0.95;0.75;;;23.20;50.40;;;;;;5078166;28;20638;-64
2023/07/27 05:47:38;;;;;;;1.35;0.85;;;23.20;50.30;;;;;;5079883;28;20036;-64
2023/07/27 05:50:04;;;;;;;1.00;0.80;;;23.20;50.30;;;;;;5079330;28;20360;-64
2023/07/27 05:52:30;;;;;;;1.00;0.80;;;23.20;50.30;;;;;;5078360;28;20159;-64
2023/07/27 05:54:55;;;;;;;2.40;0.70;;;23.20;50.30;;;;;;5077655;28;20617;-64
2023/07/27 05:57:21;;;;;;;1.20;0.82;;;23.20;50.30;;;;;;5061910;28;20024;-64
2023/07/27 05:59:46;;;;;;;0.93;0.75;;;23.20;50.30;;;;;;5059278;28;20021;-64
2023/07/27 06:02:12;;;;;;;1.48;0.80;;;23.20;50.30;;;;;;5078930;28;20031;-64
2023/07/27 06:04:38;;;;;;;0.88;0.70;;;23.20;50.30;;;;;;5077681;28;20032;-64
2023/07/27 06:07:05;;;;;;;1.15;0.70;;;23.20;50.30;;;;;;5077376;28;20028;-65
2023/07/27 06:09:31;;;;;;;1.20;0.90;;;23.20;50.30;;;;;;5078664;28;20123;-64
2023/07/27 06:11:57;;;;;;;0.70;0.70;;;23.20;50.30;;;;;;5078585;28;20480;-65
2023/07/27 06:14:23;;;;;;;1.30;0.80;;;23.20;50.30;;;;;;5077362;28;20027;-64
2023/07/27 06:16:48;;;;;;;1.00;0.70;;;23.20;50.30;;;;;;5078056;28;20396;-65
2023/07/27 06:19:14;;;;;;;1.02;0.80;;;23.20;50.30;;;;;;5065309;28;20031;-65
2023/07/27 06:21:40;;;;;;;0.70;0.70;;;23.20;50.30;;;;;;5077967;28;20158;-65
2023/07/27 06:24:07;;;;;;;1.33;0.90;;;23.20;50.40;;;;;;5079142;28;20016;-64
2023/07/27 06:26:33;;;;;;;0.93;0.70;;;23.20;50.90;;;;;;5078790;28;20017;-64
2023/07/27 06:28:58;;;;;;;0.80;0.70;;;23.20;50.40;;;;;;5059883;28;20038;-64
2023/07/27 06:31:24;;;;;;;0.98;0.80;;;23.10;50.30;;;;;;5078574;28;20131;-64
2023/07/27 06:33:50;;;;;;;1.25;0.70;;;23.10;50.30;;;;;;5075525;28;20111;-64
2023/07/27 06:36:17;;;;;;;1.38;0.88;;;23.20;50.40;;;;;;5077564;28;20020;-64
2023/07/27 06:38:43;;;;;;;1.27;0.80;;;23.10;50.30;;;;;;5076693;28;20020;-64
2023/07/27 06:41:09;;;;;;;1.67;0.90;;;23.10;50.30;;;;;;5059578;28;20039;-65
2023/07/27 06:43:34;;;;;;;1.15;0.80;;;23.10;50.30;;;;;;5077582;28;20463;-64
2023/07/27 06:46:00;;;;;;;0.90;0.73;;;23.10;50.30;;;;;;5075838;28;20437;-64
2023/07/27 06:48:26;;;;;;;1.20;0.73;;;23.10;50.30;;;;;;5075849;28;20123;-64
2023/07/27 06:50:52;;;;;;;0.93;0.70;;;23.10;50.30;;;;;;5077609;28;20487;-64
2023/07/27 06:53:18;;;;;;;1.05;0.80;;;23.10;50.30;;;;;;5077052;28;20105;-64
2023/07/27 06:55:43;;;;;;;1.08;0.70;;;23.10;50.40;;;;;;5075868;28;20446;-64
2023/07/27 06:58:09;;;;;;;1.05;0.80;;;23.10;50.30;;;;;;5077822;28;20031;-65
2023/07/27 07:00:35;;;;;;;0.73;0.70;;;23.10;50.30;;;;;;5060488;28;20052;-64
2023/07/27 07:03:00;;;;;;;1.05;0.70;;;23.10;50.30;;;;;;5078539;28;20390;-64
2023/07/27 07:05:26;;;;;;;1.45;0.88;;;23.10;50.30;;;;;;5075321;28;20091;-64
2023/07/27 07:07:52;;;;;;;1.33;0.70;;;23.10;50.30;;;;;;5077147;28;20035;-64
2023/07/27 07:10:21;;;;;;;1.02;0.70;;;23.10;50.30;;;;;;5058370;28;20383;-64
2023/07/27 07:12:47;;;;;;;0.85;0.75;;;23.10;50.60;;;;;;5075572;28;20033;-64
2023/07/27 07:15:13;;;;;;;1.13;0.85;;;23.10;50.30;;;;;;5075274;28;20446;-63
2023/07/27 07:17:39;;;;;;;0.73;0.65;;;23.10;50.30;;;;;;5076414;28;20432;-63
2023/07/27 07:20:08;;;;;;;1.25;0.80;;;23.10;50.30;;;;;;5076015;28;20531;-64
2023/07/27 07:22:34;;;;;;;1.10;0.85;;;23.10;50.30;;;;;;5061335;28;20035;-64
2023/07/27 07:25:00;;;;;;;1.08;0.70;;;23.10;50.30;;;;;;5068073;28;20395;-64
2023/07/27 07:27:26;;;;;;;1.35;0.80;;;23.10;50.40;;;;;;5078572;28;20032;-63
2023/07/27 07:29:51;;;;;;;1.25;0.90;;;23.10;50.40;;;;;;5075722;28;20031;-63
2023/07/27 07:32:17;;;;;;;1.20;0.88;;;23.10;50.30;;;;;;5076781;28;20683;-63
2023/07/27 07:34:43;;;;;;;1.38;0.85;;;23.10;50.30;;;;;;5074185;28;20948;-63
2023/07/27 07:37:09;;;;;;;0.93;0.70;;;23.10;50.30;;;;;;5075760;28;20557;-63
2023/07/27 07:39:34;;;;;;;1.25;0.80;;;23.10;50.30;;;;;;5077613;28;20024;-62
2023/07/27 07:42:00;;;;;;;1.08;0.80;;;23.10;50.40;;;;;;5061417;28;20456;-63
2023/07/27 07:44:26;;;;;;;0.88;0.80;;;23.10;50.30;;;;;;5076180;28;20025;-64
2023/07/27 07:46:52;;;;;;;0.95;0.77;;;23.10;50.30;;;;;;5074820;28;20119;-63
2023/07/27 07:49:18;;;;;;;1.38;1.10;;;23.10;50.30;;;;;;5079137;28;20110;-64
2023/07/27 07:51:43;;;;;;;1.17;0.90;;;23.10;50.30;;;;;;5077896;28;20044;-63
2023/07/27 07:54:09;;;;;;;1.52;0.98;;;23.10;50.30;;;;;;5081059;28;20033;-64
2023/07/27 07:56:35;;;;;;;1.00;0.80;;;23.10;50.30;;;;;;5080810;28;20368;-63
2023/07/27 07:59:01;;;;;;;1.15;0.70;;;23.10;50.30;;;;;;5082380;28;20113;-63
2023/07/27 08:01:27;;;;;;;0.95;0.70;;;23.10;50.30;;;;;;5080304;28;20028;-63
2023/07/27 08:03:52;;;;;;;1.27;0.90;;;23.10;50.30;;;;;;5078931;28;20043;-64
2023/07/27 08:06:18;;;;;;;0.60;0.60;;;23.10;50.30;;;;;;5081508;28;20557;-63
2023/07/27 08:08:44;;;;;;;0.95;0.70;;;23.10;50.30;;;;;;5095224;28;20032;-63
2023/07/27 08:11:10;;;;;;;0.75;0.70;;;23.10;50.30;;;;;;5096025;28;20420;-63
2023/07/27 08:13:36;;;;;;;0.70;0.70;;;23.10;50.30;;;;;;5081022;28;20024;-63
2023/07/27 08:16:03;;;;;;;0.90;0.75;;;23.10;50.30;;;;;;5078449;28;20025;-63
2023/07/27 08:18:29;;;;;;;1.02;0.73;;;23.10;50.30;;;;;;5113179;27;20048;-64
2023/07/27 08:21:02;;;;;;;0.95;0.80;;;23.10;50.30;;;;;;5079157;28;20511;-63
2023/07/27 08:23:28;;;;;;;1.40;0.90;;;23.10;50.30;;;;;;5081036;28;20031;-63
2023/07/27 08:25:55;;;;;;;0.80;0.70;;;23.10;50.30;;;;;;5061128;28;20501;-63
2023/07/27 08:28:21;;;;;;;0.85;0.70;;;23.10;50.30;;;;;;5079608;28;20028;-64
2023/07/27 08:30:47;;;;;;;0.93;0.73;;;23.00;50.80;;;;;;5065333;28;20476;-63
2023/07/27 08:33:13;;;;;;;1.05;0.80;;;23.00;50.20;;;;;;5079927;28;20047;-63
2023/07/27 08:35:44;;;;;;;0.60;0.60;;;23.10;50.30;;;;;;5079708;28;20135;-63
2023/07/27 08:38:10;;;;;;;1.63;0.90;;;23.00;50.80;;;;;;5080225;28;20029;-63
2023/07/27 08:40:35;;;;;;;0.77;0.70;;;23.10;50.30;;;;;;5080372;28;20102;-63
2023/07/27 08:43:07;;;;;;;0.82;0.70;;;23.10;50.30;;;;;;5063157;28;20423;-64
2023/07/27 08:45:34;;;;;;;0.80;0.80;;;23.00;50.30;;;;;;5078252;28;20025;-64
2023/07/27 08:48:00;;;;;;;1.02;0.77;;;23.00;50.20;;;;;;5081544;28;20032;-63
2023/07/27 08:50:26;;;;;;;1.00;0.70;;;23.10;50.30;;;;;;5078287;28;20036;-63
2023/07/27 08:52:52;;;;;;;1.23;0.90;;;23.10;50.30;;;;;;5081326;28;20079;-63
2023/07/27 08:55:17;;;;;;;1.55;0.70;;;23.00;50.20;;;;;;5064357;28;20044;-63
2023/07/27 08:57:43;;;;;;;0.93;0.80;;;23.10;50.30;;;;;;5078621;28;20371;-63
2023/07/27 09:00:12;;;;;;;1.05;0.70;;;23.00;50.20;;;;;;5076842;28;20471;-63
2023/07/27 09:02:38;;;;;;;;;;;23.00;50.20;;;;;;5080651;28;20028;-63
2023/07/27 09:05:09;;;;;;;1.38;0.90;;;23.00;50.20;;;;;;5062709;28;19915;-64
2023/07/27 09:07:35;;;;;;;0.80;0.70;;;23.00;50.20;;;;;;5078400;28;20031;-64
2023/07/27 09:10:08;;;;;;;1.25;0.80;;;23.00;50.20;;;;;;5078658;28;20376;-64
2023/07/27 09:12:35;;;;;;;1.02;0.90;;;23.10;50.30;;;;;;5078125;28;20028;-64
2023/07/27 09:15:10;;;;;;;1.00;0.77;;;23.00;50.20;;;;;;5079214;28;20036;-64
2023/07/27 09:17:36;;;;;;;0.90;0.70;;;23.00;50.70;;;;;;5078841;28;20020;-64
2023/07/27 09:20:02;;;;;;;1.27;0.80;;;23.00;50.30;;;;;;5079405;28;20106;-64
2023/07/27 09:22:28;;;;;;;1.08;0.80;;;23.10;50.30;;;;;;5079488;28;20028;-63
2023/07/27 09:24:56;;;;;;;0.63;0.63;;;23.00;50.20;;;;;;5079147;28;20113;-63
2023/07/27 09:27:22;;;;;;;1.33;0.80;;;23.00;50.20;;;;;;5079153;28;20403;-63
2023/07/27 09:29:57;;;;;;;1.25;0.70;;;23.00;50.70;;;;;;5078407;28;20051;-63
2023/07/27 09:32:23;;;;;;;1.05;0.70;;;23.00;50.20;;;;;;5076518;28;20728;-63
2023/07/27 09:34:55;;;;;;;0.80;0.80;;;23.00;50.20;;;;;;5077712;28;20029;-63
2023/07/27 09:37:22;;;;;;;1.20;0.88;;;23.00;50.20;;;;;;5078169;28;20025;-63
2023/07/27 09:39:48;;;;;;;1.20;0.80;;;23.00;50.20;;;;;;5080069;28;20024;-63
2023/07/27 09:42:15;;;;;;;1.30;0.80;;;23.00;50.20;;;;;;5079657;28;20353;-63
2023/07/27 09:44:48;;;;;;;0.93;0.80;;;23.00;50.20;;;;;;5078137;28;20496;-63
2023/07/27 09:47:19;;;;;;;1.23;0.90;;;23.00;50.20;;;;;;5077040;28;20028;-64
2023/07/27 09:49:48;;;;;;;1.25;0.85;;;23.00;50.20;;;;;;5078527;28;20479;-63
2023/07/27 09:52:14;;;;;;;0.80;0.80;;;23.00;50.20;;;;;;5077095;28;20024;-63
2023/07/27 09:54:41;;;;;;;1.08;0.85;;;23.00;50.20;;;;;;5070325;28;20447;-63
2023/07/27 09:57:07;;;;;;;0.95;0.70;;;23.00;50.20;;;;;;5077506;28;20591;-63
2023/07/27 09:59:33;;;;;;;1.25;0.90;;;23.00;50.20;;;;;;5078750;28;20463;-64
2023/07/27 10:01:58;;;;;;;2.13;1.25;;;23.00;50.20;;;;;;5077629;28;20028;-63
2023/07/27 10:04:24;;;;;;;1.20;0.90;;;23.00;50.20;;;;;;5078950;28;20108;-63
2023/07/27 10:06:49;;;;;;;1.02;0.80;;;23.00;50.10;;;;;;5076302;28;20098;-64
2023/07/27 10:09:18;;;;;;;1.02;0.80;;;23.00;50.10;;;;;;5077150;28;20096;-63
2023/07/27 10:11:54;;;;;;;0.80;0.73;;;23.00;50.20;;;;;;5060776;28;20024;-63
2023/07/27 10:14:20;;;;;;;1.30;0.80;;;23.00;50.20;;;;;;5081160;28;20106;-63
2023/07/27 10:17:02;;;;;;;1.55;0.70;;;23.00;50.20;;;;;;5092332;28;20229;-64
2023/07/27 10:19:45;;;;;;;1.33;0.80;;;23.00;50.10;;;;;;5091754;28;20040;-63
2023/07/27 10:22:16;;;;;;;0.82;0.73;;;23.00;50.10;;;;;;5062261;28;20056;-64
2023/07/27 10:24:52;;;;;;;1.00;0.88;;;23.00;50.20;;;;;;5078400;28;20037;-63
2023/07/27 10:27:19;;;;;;;1.10;0.88;;;23.00;50.20;;;;;;5061675;28;20609;-63
2023/07/27 10:30:08;;;;;;;1.33;0.90;;;23.00;50.10;;;;;;5079934;28;20028;-63
2023/07/27 10:32:37;;;;;;;0.85;0.75;;;23.00;50.10;;;;;;5075885;28;20490;-64
2023/07/27 10:35:07;;;;;;;1.20;0.90;;;23.00;50.10;;;;;;5078511;28;20016;-64
2023/07/27 10:37:54;;;;;;;0.75;0.73;;;23.00;50.10;;;;;;5079931;28;20024;-64
2023/07/27 10:40:29;;;;;;;1.13;0.88;;;23.00;50.10;;;;;;5077464;28;20202;-65
2023/07/27 10:42:56;;;;;;;1.35;0.80;;;23.00;50.10;;;;;;5077351;28;20039;-64
2023/07/27 10:45:25;;;;;;;0.90;0.80;;;23.00;50.10;;;;;;5079348;28;20147;-64
2023/07/27 10:47:56;;;;;;;1.70;0.90;;;23.00;50.10;;;;;;5075161;28;20028;-63
2023/07/27 10:50:21;;;;;;;1.27;0.88;;;23.00;50.10;;;;;;5077570;28;20028;-64
2023/07/27 10:52:52;;;;;;;1.17;0.90;;;23.00;50.10;;;;;;5094191;28;20472;-64
2023/07/27 10:55:20;;;;;;;0.63;0.60;;;23.00;50.10;;;;;;5076527;28;20060;-64
2023/07/27 10:57:47;;;;;;;1.15;0.80;;;23.00;50.10;;;;;;5075940;28;20547;-64
2023/07/27 11:00:13;;;;;;;1.38;0.82;;;23.00;50.10;;;;;;5076942;28;20032;-64
2023/07/27 11:02:42;;;;;;;1.10;1.00;;;23.00;50.10;;;;;;5074620;28;20499;-64
2023/07/27 11:05:09;;;;;;;1.08;0.88;;;23.00;50.00;;;;;;5078368;28;20021;-64
2023/07/27 11:07:40;;;;;;;0.80;0.80;;;23.00;50.10;;;;;;5078684;28;20050;-63
2023/07/27 11:10:11;;;;;;;1.15;0.80;;;23.00;50.00;;;;;;5075931;28;20060;-63
2023/07/27 11:12:47;;;;;;;0.95;0.77;;;23.00;50.00;;;;;;5077211;28;20039;-64
2023/07/27 11:15:32;;;;;;;1.10;0.90;;;23.00;50.00;;;;;;5078080;28;20429;-64
2023/07/27 11:18:01;;;;;;;0.98;0.80;;;23.00;50.00;;;;;;5076098;28;20032;-65
2023/07/27 11:20:30;;;;;;;1.17;0.80;;;23.00;50.00;;;;;;5077969;28;20095;-63
2023/07/27 11:22:57;;;;;;;0.88;0.73;;;23.00;50.00;;;;;;5076499;28;20032;-63
2023/07/27 11:25:23;;;;;;;0.95;0.80;;;23.00;50.00;;;;;;5059336;28;20020;-63
2023/07/27 11:27:50;;;;;;;1.20;0.90;;;23.00;50.00;;;;;;5074716;28;20020;-63
2023/07/27 11:30:19;;;;;;;1.02;0.82;;;23.00;50.00;;;;;;5075968;28;20464;-63
2023/07/27 11:33:02;;;;;;;0.88;0.80;;;23.10;50.10;;;;;;5076966;28;20052;-63
2023/07/27 11:35:28;;;;;;;1.10;0.80;;;23.00;50.00;;;;;;5077910;28;20082;-63
2023/07/27 11:37:53;;;;;;;1.10;0.88;;;23.00;50.00;;;;;;5066854;28;20172;-63
2023/07/27 11:40:20;;;;;;;0.88;0.70;;;23.00;50.00;;;;;;5076228;28;20064;-63
2023/07/27 11:42:46;;;;;;;1.10;0.70;;;23.00;50.00;;;;;;5077964;28;20029;-63
2023/07/27 11:45:12;;;;;;;1.27;0.90;;;23.00;50.00;;;;;;5076991;28;20146;-63
2023/07/27 11:47:39;;;;;;;1.00;0.80;;;23.10;50.50;;;;;;5075738;28;20039;-63
2023/07/27 11:50:06;;;;;;;1.30;0.80;;;23.00;50.00;;;;;;5078094;28;20028;-64
2023/07/27 11:52:35;;;;;;;0.77;0.75;;;23.00;50.00;;;;;;5076078;28;20032;-64
2023/07/27 11:55:01;;;;;;;1.02;0.80;;;23.10;50.00;;;;;;5076317;28;20028;-63
2023/07/27 11:57:27;;;;;;;0.93;0.82;;;23.00;50.00;;;;;;5077462;28;20029;-64
2023/07/27 12:00:04;;;;;;;1.23;0.90;;;23.00;50.00;;;;;;5075930;28;20029;-64
2023/07/27 12:02:33;;;;;;;1.45;0.80;;;23.00;50.00;;;;;;5075850;28;20028;-66
2023/07/27 12:05:00;;;;;;;1.33;0.90;;;23.00;50.00;;;;;;5078762;28;20453;-66
2023/07/27 12:07:31;;;;;;;0.73;0.68;;;23.00;50.00;;;;;;5078169;28;20460;-66
2023/07/27 12:09:56;;;;;;;1.10;0.88;;;23.10;50.00;;;;;;5076466;28;20058;-67
2023/07/27 12:12:22;;;;;;;0.85;0.73;;;23.10;50.00;;;;;;5058666;28;20032;-66
2023/07/27 12:14:48;;;;;;;0.95;0.80;;;23.10;50.00;;;;;;5074224;28;20955;-66
2023/07/27 12:17:14;;;;;;;1.23;0.80;;;23.00;49.90;;;;;;5091152;28;20660;-67
2023/07/27 12:19:39;;;;;;;1.08;0.80;;;23.00;49.90;;;;;;5077010;28;20053;-67
2023/07/27 12:22:05;;;;;;;1.23;0.90;;;23.00;49.90;;;;;;5075937;28;20047;-66
2023/07/27 12:24:30;;;;;;;1.15;0.88;;;23.10;50.00;;;;;;5075969;28;20028;-66
2023/07/27 12:26:58;;;;;;;1.27;0.80;;;23.00;49.90;;;;;;5074739;28;20032;-66
2023/07/27 12:29:24;;;;;;;0.88;0.80;;;23.00;49.90;;;;;;5074974;28;20614;-66
2023/07/27 12:31:50;;;;;;;0.95;0.80;;;23.00;49.90;;;;;;5074971;28;20060;-66
2023/07/27 12:34:15;;;;;;;1.67;0.98;;;23.10;50.00;;;;;;5078148;28;20031;-66
2023/07/27 12:36:41;;;;;;;1.23;0.90;;;23.10;50.00;;;;;;5072942;28;20358;-67
2023/07/27 12:39:06;;;;;;;0.85;0.70;;;23.10;49.90;;;;;;5078137;28;20445;-66
2023/07/27 12:41:32;;;;;;;1.58;0.80;;;23.00;49.90;;;;;;5096468;28;20225;-66
2023/07/27 12:43:58;;;;;;;1.05;0.88;;;23.10;50.00;;;;;;5065770;28;20476;-66
2023/07/27 12:46:23;;;;;;;1.50;1.00;;;23.10;49.90;;;;;;5081281;28;20032;-66
2023/07/27 12:48:50;;;;;;;0.98;0.80;;;23.00;49.90;;;;;;5077737;28;20048;-66